createdAt,value
2022-09-20T00:00:51.134Z,96.55
2022-09-20T00:03:21.084Z,96.13
2022-09-20T00:05:50.597Z,96.01
2022-09-20T00:08:22.703Z,95.50
2022-09-20T00:10:54.127Z,95.59
2022-09-20T00:13:23.740Z,95.63
2022-09-20T00:15:53.278Z,94.79
2022-09-20T00:18:22.828Z,95.04
2022-09-20T00:20:53.731Z,95.27
2022-09-20T00:23:25.897Z,94.47
2022-09-20T00:25:59.709Z,95.04
2022-09-20T00:28:30.035Z,95.36
2022-09-20T00:30:59.857Z,95.04
2022-09-20T00:33:49.909Z,95.57
2022-09-20T00:36:16.974Z,96.12
2022-09-20T00:38:49.260Z,95.96
2022-09-20T00:41:18.809Z,95.33
2022-09-20T00:43:49.425Z,95.38
2022-09-20T00:46:25.918Z,95.15
2022-09-20T00:49:00.926Z,95.67
2022-09-20T00:51:34.717Z,96.59
2022-09-20T00:54:10.326Z,96.30
2022-09-20T00:56:44.178Z,96.50
2022-09-20T00:59:19.641Z,96.04
2022-09-20T01:01:54.509Z,95.64
2022-09-20T01:04:27.995Z,95.31
2022-09-20T01:07:01.484Z,94.57
2022-09-20T01:09:33.572Z,94.82
2022-09-20T01:12:07.906Z,95.44
2022-09-20T01:14:37.997Z,95.38
2022-09-20T01:17:09.261Z,94.97
2022-09-20T01:19:44.471Z,94.95
2022-09-20T01:22:23.942Z,95.90
2022-09-20T01:25:07.149Z,95.79
2022-09-20T01:27:48.059Z,95.58
2022-09-20T01:30:21.858Z,95.55
2022-09-20T01:33:12.220Z,94.96
2022-09-20T01:35:44.217Z,95.67
2022-09-20T01:38:33.834Z,95.36
2022-09-20T01:41:11.145Z,96.60
2022-09-20T01:43:51.101Z,96.78
2022-09-20T01:46:32.569Z,96.14
2022-09-20T01:49:12.248Z,95.38
2022-09-20T01:52:15.499Z,96.10
2022-09-20T01:55:10.207Z,95.79
2022-09-20T01:58:15.453Z,95.06
2022-09-20T02:01:07.875Z,94.80
2022-09-20T02:03:57.287Z,94.98
2022-09-20T02:06:44.660Z,95.03
2022-09-20T02:09:33.580Z,94.70
2022-09-20T02:12:24.740Z,94.02
2022-09-20T02:15:04.980Z,94.31
2022-09-20T02:17:49.202Z,93.91
2022-09-20T02:20:33.473Z,94.25
2022-09-20T02:23:20.657Z,93.80
2022-09-20T02:26:06.176Z,93.65
2022-09-20T02:28:58.829Z,93.08
2022-09-20T02:31:53.337Z,93.39
2022-09-20T02:34:45.774Z,93.95
2022-09-20T02:37:44.791Z,94.34
2022-09-20T02:40:26.781Z,94.57
2022-09-20T02:43:04.952Z,94.75
2022-09-20T02:45:41.995Z,94.60
2022-09-20T02:48:11.949Z,94.94
2022-09-20T02:50:50.964Z,95.07
2022-09-20T02:53:35.457Z,94.67
2022-09-20T02:56:13.166Z,94.90
2022-09-20T02:58:54.739Z,94.66
2022-09-20T03:01:38.015Z,94.99
2022-09-20T03:04:20.987Z,94.48
2022-09-20T03:07:00.457Z,94.89
2022-09-20T03:09:36.937Z,94.65
2022-09-20T03:12:17.630Z,95.75
2022-09-20T03:14:52.437Z,95.53
2022-09-20T03:17:30.107Z,95.53
2022-09-20T03:20:10.251Z,94.98
2022-09-20T03:22:57.406Z,94.74
2022-09-20T03:25:50.204Z,95.10
2022-09-20T03:28:57.211Z,95.49
2022-09-20T03:31:41.806Z,96.55
2022-09-20T03:34:30.119Z,96.42
2022-09-20T03:37:18.283Z,95.67
2022-09-20T03:40:09.756Z,95.69
2022-09-20T03:42:49.048Z,96.21
2022-09-20T03:45:41.141Z,95.74
2022-09-20T03:48:34.053Z,95.34
2022-09-20T03:51:14.863Z,96.33
2022-09-20T03:54:14.249Z,95.29
2022-09-20T03:57:28.493Z,95.59
2022-09-20T04:00:30.820Z,95.56
2022-09-20T04:03:16.807Z,95.58
2022-09-20T04:05:55.641Z,96.17
2022-09-20T04:08:43.423Z,96.02
2022-09-20T04:11:24.325Z,95.42
2022-09-20T04:14:01.147Z,94.89
2022-09-20T04:16:41.854Z,95.06
2022-09-20T04:19:20.125Z,95.25
2022-09-20T04:21:58.426Z,95.30
2022-09-20T04:24:40.035Z,95.33
2022-09-20T04:27:17.229Z,94.93
2022-09-20T04:29:54.446Z,95.11
2022-09-20T04:32:31.540Z,95.80
2022-09-20T04:35:21.065Z,96.46
2022-09-20T04:37:52.594Z,97.37
2022-09-20T04:40:32.286Z,97.30
2022-09-20T04:43:24.394Z,97.38
2022-09-20T04:46:11.693Z,98.56
2022-09-20T04:49:11.478Z,97.37
2022-09-20T04:52:08.846Z,97.86
2022-09-20T04:55:19.344Z,97.23
2022-09-20T04:58:16.357Z,96.99
2022-09-20T05:01:06.208Z,97.69
2022-09-20T05:04:01.726Z,97.44
2022-09-20T05:06:55.121Z,98.07
2022-09-20T05:09:47.187Z,98.46
2022-09-20T05:12:47.005Z,98.17
2022-09-20T05:15:29.333Z,97.39
2022-09-20T05:18:18.140Z,97.28
2022-09-20T05:20:59.560Z,97.25
2022-09-20T05:23:47.549Z,96.75
2022-09-20T05:26:27.952Z,96.43
2022-09-20T05:29:03.676Z,96.12
2022-09-20T05:31:42.892Z,96.11
2022-09-20T05:34:23.007Z,95.44
2022-09-20T05:37:00.165Z,96.15
2022-09-20T05:39:41.696Z,94.73
2022-09-20T05:42:22.497Z,94.51
2022-09-20T05:45:06.959Z,94.37
2022-09-20T05:47:47.391Z,94.52
2022-09-20T05:50:31.219Z,94.39
2022-09-20T05:53:26.573Z,94.48
2022-09-20T05:56:08.779Z,94.81
2022-09-20T05:58:55.141Z,95.01
2022-09-20T06:01:29.910Z,95.17
2022-09-20T06:04:17.636Z,94.97
2022-09-20T06:06:58.533Z,95.36
2022-09-20T06:10:01.352Z,94.90
2022-09-20T06:12:52.910Z,95.49
2022-09-20T06:15:35.805Z,95.63
2022-09-20T06:18:19.328Z,95.68
2022-09-20T06:20:57.675Z,95.75
2022-09-20T06:23:27.996Z,95.45
2022-09-20T06:26:07.823Z,95.26
2022-09-20T06:28:42.012Z,95.90
2022-09-20T06:31:15.608Z,95.30
2022-09-20T06:33:55.830Z,94.82
2022-09-20T06:36:43.460Z,94.90
2022-09-20T06:39:36.747Z,94.90
2022-09-20T06:42:07.121Z,95.15
2022-09-20T06:44:41.257Z,94.92
2022-09-20T06:47:15.447Z,94.68
2022-09-20T06:49:47.757Z,94.04
2022-09-20T06:52:19.989Z,93.86
2022-09-20T06:54:54.201Z,93.49
2022-09-20T06:57:27.732Z,93.73
2022-09-20T06:59:57.411Z,93.35
2022-09-20T07:02:29.944Z,92.18
2022-09-20T07:04:59.740Z,92.87
2022-09-20T07:07:31.477Z,92.99
2022-09-20T07:10:02.119Z,92.86
2022-09-20T07:12:33.601Z,92.78
2022-09-20T07:15:03.259Z,91.81
2022-09-20T07:17:35.596Z,92.07
2022-09-20T07:20:06.103Z,91.42
2022-09-20T07:22:36.026Z,90.98
2022-09-20T07:25:10.969Z,91.85
2022-09-20T07:27:40.684Z,92.17
2022-09-20T07:30:12.810Z,91.25
2022-09-20T07:32:45.184Z,91.41
2022-09-20T07:35:16.272Z,91.72
2022-09-20T07:37:45.927Z,92.09
2022-09-20T07:40:15.879Z,92.13
2022-09-20T07:42:46.818Z,92.62
2022-09-20T07:45:16.530Z,92.59
2022-09-20T07:47:49.056Z,92.77
2022-09-20T07:50:19.564Z,92.37
2022-09-20T07:52:50.292Z,92.54
2022-09-20T07:55:19.951Z,92.45
2022-09-20T07:57:49.663Z,92.50
2022-09-20T08:00:20.254Z,92.41
2022-09-20T08:03:01.865Z,92.49
2022-09-20T08:05:31.892Z,93.69
2022-09-20T08:08:01.751Z,93.81
2022-09-20T08:10:32.833Z,94.29
2022-09-20T08:15:53.384Z,94.44
2022-09-20T08:18:28.447Z,94.29
2022-09-20T08:20:58.258Z,93.84
2022-09-20T08:23:29.314Z,94.42
2022-09-20T08:26:00.209Z,94.18
2022-09-20T08:28:31.531Z,94.20
2022-09-20T08:31:05.788Z,92.77
2022-09-20T08:33:39.978Z,93.06
2022-09-20T08:36:14.598Z,92.73
2022-09-20T08:41:39.056Z,93.33
2022-09-20T08:44:16.963Z,92.11
2022-09-20T08:46:51.064Z,91.37
2022-09-20T08:49:29.275Z,91.25
2022-09-20T08:52:02.349Z,90.90
2022-09-20T08:54:35.444Z,91.22
2022-09-20T08:57:13.140Z,90.62
2022-09-20T08:59:44.263Z,90.09
2022-09-20T09:02:19.063Z,89.43
2022-09-20T09:04:53.892Z,89.64
2022-09-20T09:07:26.819Z,89.01
2022-09-20T09:09:58.933Z,86.66
2022-09-20T09:12:31.547Z,87.17
2022-09-20T09:15:09.143Z,88.00
2022-09-20T09:17:38.950Z,85.19
2022-09-20T09:20:22.614Z,85.31
2022-09-20T09:23:03.294Z,85.95
2022-09-20T09:25:35.110Z,84.82
2022-09-20T09:28:07.312Z,83.79
2022-09-20T09:30:39.479Z,84.40
2022-09-20T09:33:28.342Z,80.60
2022-09-20T09:36:10.370Z,80.84
2022-09-20T09:38:44.677Z,82.91
2022-09-20T09:41:29.851Z,82.16
2022-09-20T09:44:06.621Z,82.88
2022-09-20T09:46:39.592Z,81.68
2022-09-20T09:49:15.715Z,81.28
2022-09-20T09:52:04.428Z,80.61
2022-09-20T09:54:38.808Z,79.88
2022-09-20T09:57:33.121Z,79.74
2022-09-20T10:00:21.311Z,80.22
2022-09-20T10:03:04.793Z,80.37
2022-09-20T10:05:44.013Z,80.45
2022-09-20T10:08:31.540Z,81.12
2022-09-20T10:11:17.717Z,80.80
2022-09-20T10:14:03.268Z,81.37
2022-09-20T10:16:42.233Z,83.67
2022-09-20T10:19:24.789Z,84.85
2022-09-20T10:22:03.967Z,87.09
2022-09-20T10:24:51.367Z,88.69
2022-09-20T10:27:36.818Z,90.03
2022-09-20T10:30:15.765Z,89.79
2022-09-20T10:32:59.962Z,90.11
2022-09-20T10:35:43.298Z,89.98
2022-09-20T10:38:19.949Z,89.45
2022-09-20T10:41:26.103Z,89.69
2022-09-20T10:44:19.404Z,90.35
2022-09-20T10:47:01.985Z,90.55
2022-09-20T10:49:38.742Z,89.51
2022-09-20T10:52:26.505Z,89.11
2022-09-20T10:55:13.271Z,88.50
2022-09-20T10:58:13.188Z,87.68
2022-09-20T11:00:53.030Z,88.83
2022-09-20T11:03:39.160Z,88.62
2022-09-20T11:06:18.795Z,89.81
2022-09-20T11:08:54.550Z,91.35
2022-09-20T11:11:29.534Z,91.85
2022-09-20T11:14:08.530Z,91.59
2022-09-20T11:16:45.862Z,91.89
2022-09-20T11:19:27.122Z,91.79
2022-09-20T11:22:06.188Z,91.59
2022-09-20T11:24:42.325Z,91.92
2022-09-20T11:27:18.662Z,92.53
2022-09-20T11:30:02.057Z,92.45
2022-09-20T11:32:37.741Z,92.13
2022-09-20T11:35:23.874Z,90.82
2022-09-20T11:38:01.987Z,92.16
2022-09-20T11:40:37.277Z,88.99
2022-09-20T11:43:09.315Z,89.34
2022-09-20T11:45:45.947Z,87.79
2022-09-20T11:48:21.442Z,86.58
2022-09-20T11:51:13.740Z,85.26
2022-09-20T11:53:59.764Z,82.06
2022-09-20T11:56:34.712Z,84.01
2022-09-20T11:59:08.270Z,82.48
2022-09-20T12:01:43.566Z,83.28
2022-09-20T12:04:38.989Z,83.23
2022-09-20T12:07:18.642Z,81.89
2022-09-20T12:09:54.838Z,78.66
2022-09-20T12:12:34.891Z,74.19
2022-09-20T12:15:08.248Z,75.45
2022-09-20T12:18:12.498Z,74.72
2022-09-20T12:21:04.467Z,75.42
2022-09-20T12:24:04.348Z,73.91
2022-09-20T12:26:46.469Z,71.82
2022-09-20T12:29:54.340Z,67.34
2022-09-20T12:32:46.986Z,66.99
2022-09-20T12:35:59.921Z,69.67
2022-09-20T12:38:42.004Z,69.88
2022-09-20T12:41:16.725Z,70.32
2022-09-20T12:43:59.299Z,69.01
2022-09-20T12:46:35.833Z,72.75
2022-09-20T12:49:50.892Z,70.70
2022-09-20T12:52:39.668Z,70.67
2022-09-20T12:55:30.973Z,68.75
2022-09-20T12:58:06.303Z,69.44
2022-09-20T13:00:42.592Z,69.43
2022-09-20T13:03:32.072Z,72.61
2022-09-20T13:06:25.496Z,75.41
2022-09-20T13:09:04.924Z,77.27
2022-09-20T13:11:43.832Z,79.22
2022-09-20T13:14:22.008Z,80.41
2022-09-20T13:16:56.693Z,81.54
2022-09-20T13:19:37.836Z,82.17
2022-09-20T13:22:17.455Z,81.97
2022-09-20T13:24:50.601Z,82.07
2022-09-20T13:27:26.357Z,83.70
2022-09-20T13:29:57.081Z,84.85
2022-09-20T13:32:29.279Z,85.20
2022-09-20T13:35:09.672Z,84.91
2022-09-20T13:37:43.850Z,85.45
2022-09-20T13:40:20.791Z,85.22
2022-09-20T13:43:21.971Z,85.39
2022-09-20T13:45:58.283Z,84.09
2022-09-20T13:48:30.513Z,83.52
2022-09-20T13:51:02.513Z,84.19
2022-09-20T13:53:42.027Z,82.88
2022-09-20T13:56:19.190Z,83.30
2022-09-20T13:58:54.298Z,83.73
2022-09-20T14:01:30.819Z,84.02
2022-09-20T14:04:06.307Z,84.28
2022-09-20T14:06:36.639Z,84.60
2022-09-20T14:09:11.598Z,83.95
2022-09-20T14:11:42.467Z,84.19
2022-09-20T14:14:21.853Z,84.14
2022-09-20T14:16:52.888Z,83.01
2022-09-20T14:19:31.521Z,82.19
2022-09-20T14:22:02.291Z,83.56
2022-09-20T14:24:35.725Z,81.96
2022-09-20T14:27:17.512Z,82.04
2022-09-20T14:29:51.340Z,81.51
2022-09-20T14:32:40.803Z,80.76
2022-09-20T14:35:18.052Z,80.87
2022-09-20T14:37:51.112Z,81.96
2022-09-20T14:40:25.922Z,82.10
2022-09-20T14:43:01.023Z,81.77
2022-09-20T14:45:36.487Z,81.11
2022-09-20T14:48:11.005Z,80.59
2022-09-20T14:50:44.191Z,81.44
2022-09-20T14:53:38.382Z,81.73
2022-09-20T14:56:13.341Z,81.50
2022-09-20T14:59:05.714Z,80.99
2022-09-20T15:01:41.230Z,82.17
2022-09-20T15:04:19.000Z,82.19
2022-09-20T15:06:48.814Z,82.70
2022-09-20T15:09:18.736Z,82.37
2022-09-20T15:11:50.078Z,81.85
2022-09-20T15:14:21.728Z,81.98
2022-09-20T15:16:55.020Z,81.95
2022-09-20T15:19:24.736Z,82.42
2022-09-20T15:21:54.450Z,82.55
2022-09-20T15:24:24.179Z,82.71
2022-09-20T15:26:54.183Z,82.94
2022-09-20T15:29:23.949Z,82.27
2022-09-20T15:31:56.291Z,82.14
2022-09-20T15:34:26.118Z,81.83
2022-09-20T15:36:57.050Z,82.34
2022-09-20T15:39:27.883Z,83.03
2022-09-20T15:41:57.597Z,81.63
2022-09-20T15:44:27.273Z,81.69
2022-09-20T15:47:00.531Z,82.45
2022-09-20T15:49:31.202Z,82.78
2022-09-20T15:52:02.454Z,82.85
2022-09-20T15:54:32.190Z,83.25
2022-09-20T15:57:01.863Z,82.63
2022-09-20T15:59:33.110Z,82.15
2022-09-20T16:02:05.634Z,82.24
2022-09-20T16:04:36.370Z,82.95
2022-09-20T16:07:06.421Z,82.58
2022-09-20T16:09:37.979Z,82.23
2022-09-20T16:12:09.398Z,82.55
2022-09-20T16:14:40.081Z,82.31
2022-09-20T16:17:12.406Z,83.13
2022-09-20T16:19:40.320Z,82.64
2022-09-20T16:22:12.590Z,82.48
2022-09-20T16:24:42.354Z,81.75
2022-09-20T16:27:12.567Z,83.14
2022-09-20T16:29:42.218Z,83.27
2022-09-20T16:32:14.695Z,84.23
2022-09-20T16:34:45.612Z,84.96
2022-09-20T16:37:16.759Z,84.35
2022-09-20T16:39:46.626Z,84.52
2022-09-20T16:42:17.092Z,84.39
2022-09-20T16:44:48.808Z,85.12
2022-09-20T16:47:25.187Z,84.42
2022-09-20T16:49:56.497Z,85.19
2022-09-20T16:52:29.734Z,85.19
2022-09-20T16:55:03.362Z,85.44
2022-09-20T16:57:38.392Z,85.89
2022-09-20T17:00:09.889Z,86.28
2022-09-20T17:02:47.145Z,86.59
2022-09-20T17:05:18.761Z,86.83
2022-09-20T17:07:49.460Z,87.61
2022-09-20T17:10:24.356Z,87.13
2022-09-20T17:12:57.898Z,86.46
2022-09-20T17:15:27.697Z,86.94
2022-09-20T17:18:00.392Z,86.90
2022-09-20T17:20:30.173Z,87.11
2022-09-20T17:23:01.517Z,86.46
2022-09-20T17:25:31.578Z,86.15
2022-09-20T17:28:02.369Z,86.19
2022-09-20T17:30:33.017Z,86.33
2022-09-20T17:33:05.609Z,86.21
2022-09-20T17:35:35.377Z,86.48
2022-09-20T17:38:05.058Z,86.40
2022-09-20T17:40:34.812Z,86.80
2022-09-20T17:43:07.678Z,86.74
2022-09-20T17:45:38.356Z,87.02
2022-09-20T17:48:11.697Z,87.23
2022-09-20T17:50:41.373Z,87.98
2022-09-20T17:53:12.066Z,87.87
2022-09-20T17:55:41.711Z,88.25
2022-09-20T17:58:11.424Z,88.35
2022-09-20T18:00:44.680Z,87.97
2022-09-20T18:03:17.573Z,88.28
2022-09-20T18:05:47.459Z,88.29
2022-09-20T18:08:19.029Z,88.51
2022-09-20T18:10:58.615Z,88.34
2022-09-20T18:13:30.350Z,89.14
2022-09-20T18:16:01.583Z,89.04
2022-09-20T18:18:35.389Z,89.44
2022-09-20T18:21:12.415Z,89.28
2022-09-20T18:23:43.553Z,89.97
2022-09-20T18:26:26.993Z,89.69
2022-09-20T18:28:58.736Z,89.92
2022-09-20T18:31:34.587Z,89.55
2022-09-20T18:34:09.900Z,90.03
2022-09-20T18:36:42.139Z,90.06
2022-09-20T18:39:13.075Z,90.47
2022-09-20T18:41:44.045Z,90.25
2022-09-20T18:44:14.899Z,90.34
2022-09-20T18:46:44.766Z,90.15
2022-09-20T18:49:18.112Z,89.97
2022-09-20T18:51:48.800Z,90.13
2022-09-20T18:54:19.383Z,90.05
2022-09-20T18:56:53.977Z,89.83
2022-09-20T18:59:26.985Z,89.85
2022-09-20T19:02:25.791Z,89.05
2022-09-20T19:05:20.401Z,89.22
2022-09-20T19:08:01.494Z,89.95
2022-09-20T19:10:42.004Z,89.86
2022-09-20T19:13:25.939Z,90.28
2022-09-20T19:16:16.081Z,90.41
2022-09-20T19:19:27.038Z,90.19
2022-09-20T19:22:05.538Z,91.24
2022-09-20T19:24:50.196Z,90.77
2022-09-20T19:27:20.297Z,91.53
2022-09-20T19:29:50.693Z,91.86
2022-09-20T19:32:24.284Z,91.71
2022-09-20T19:35:01.636Z,91.42
2022-09-20T19:37:41.911Z,90.91
2022-09-20T19:40:29.948Z,90.38
2022-09-20T19:43:16.899Z,90.58
2022-09-20T19:45:52.239Z,90.79
2022-09-20T19:48:29.784Z,90.71
2022-09-20T19:51:01.661Z,90.90
2022-09-20T19:53:35.781Z,90.68
2022-09-20T19:56:18.689Z,91.12
2022-09-20T19:58:53.112Z,91.47
2022-09-20T20:01:25.367Z,92.12
2022-09-20T20:03:56.683Z,91.88
2022-09-20T20:06:31.158Z,91.57
2022-09-20T20:09:10.160Z,91.60
2022-09-20T20:11:50.149Z,91.69
2022-09-20T20:14:26.570Z,91.99
2022-09-20T20:17:06.639Z,91.13
2022-09-20T20:19:51.266Z,90.70
2022-09-20T20:22:38.562Z,90.25
2022-09-20T20:25:26.422Z,89.96
2022-09-20T20:27:56.089Z,90.67
2022-09-20T20:30:25.845Z,90.40
2022-09-20T20:32:58.004Z,90.51
2022-09-20T20:35:28.744Z,90.61
2022-09-20T20:37:58.412Z,90.52
2022-09-20T20:40:32.933Z,90.40
2022-09-20T20:43:03.161Z,90.21
2022-09-20T20:45:33.017Z,90.36
2022-09-20T20:48:02.990Z,90.86
2022-09-20T20:50:33.568Z,90.50
2022-09-20T20:53:06.735Z,90.72
2022-09-20T20:55:41.273Z,90.21
2022-09-20T20:58:10.994Z,90.34
2022-09-20T21:00:41.696Z,90.37
2022-09-20T21:03:13.352Z,90.57
2022-09-20T21:05:43.351Z,90.52
2022-09-20T21:08:13.001Z,90.68
2022-09-20T21:10:45.247Z,90.39
2022-09-20T21:13:14.987Z,89.98
2022-09-20T21:15:44.773Z,90.27
2022-09-20T21:18:15.520Z,89.95
2022-09-20T21:20:45.147Z,89.82
2022-09-20T21:23:14.827Z,90.06
2022-09-20T21:25:48.740Z,89.69
2022-09-20T21:28:18.617Z,89.81
2022-09-20T21:30:48.451Z,90.13
2022-09-20T21:33:18.168Z,89.89
2022-09-20T21:35:47.880Z,90.13
2022-09-20T21:38:17.624Z,89.76
2022-09-20T21:40:49.929Z,89.20
2022-09-20T21:43:19.639Z,89.60
2022-09-20T21:45:50.314Z,89.55
2022-09-20T21:48:20.023Z,89.86
2022-09-20T21:50:49.761Z,89.89
2022-09-20T21:53:19.644Z,89.72
2022-09-20T21:55:58.639Z,89.46
2022-09-20T21:58:29.046Z,89.58
2022-09-20T22:01:04.180Z,89.54
2022-09-20T22:03:38.743Z,89.22
2022-09-20T22:06:13.899Z,89.43
2022-09-20T22:08:45.260Z,89.01
2022-09-20T22:11:18.432Z,88.98
2022-09-20T22:13:49.971Z,88.76
2022-09-20T22:16:21.653Z,88.56
2022-09-20T22:18:54.102Z,88.99
2022-09-20T22:21:25.954Z,89.41
2022-09-20T22:23:59.153Z,89.75
2022-09-20T22:26:34.330Z,89.87
2022-09-20T22:29:06.553Z,89.87
2022-09-20T22:31:38.973Z,89.78
2022-09-20T22:34:09.945Z,89.91
2022-09-20T22:36:43.049Z,89.75
2022-09-20T22:39:14.299Z,89.89
2022-09-20T22:41:47.987Z,89.24
2022-09-20T22:44:21.652Z,88.93
2022-09-20T22:46:51.519Z,89.03
2022-09-20T22:49:22.322Z,89.30
2022-09-20T22:51:51.998Z,89.74
2022-09-20T22:54:21.733Z,89.68
2022-09-20T22:56:55.016Z,89.59
2022-09-20T22:59:24.796Z,90.21
2022-09-20T23:01:54.437Z,89.90
2022-09-20T23:04:24.676Z,89.85
2022-09-20T23:06:55.831Z,90.20
2022-09-20T23:09:27.648Z,89.86
2022-09-20T23:11:59.885Z,89.97
2022-09-20T23:14:29.606Z,89.88
2022-09-20T23:16:59.372Z,89.37
2022-09-20T23:19:29.065Z,89.31
2022-09-20T23:21:58.700Z,88.99
2022-09-20T23:24:28.315Z,88.67
2022-09-20T23:27:00.684Z,88.92
2022-09-20T23:29:30.323Z,89.44
2022-09-20T23:31:59.937Z,89.49
2022-09-20T23:34:29.696Z,89.33
2022-09-20T23:36:59.291Z,89.52
2022-09-20T23:39:29.445Z,89.99
2022-09-20T23:42:01.683Z,89.71
2022-09-20T23:44:31.285Z,89.42
2022-09-20T23:47:00.904Z,89.08
2022-09-20T23:49:30.532Z,88.97
2022-09-20T23:52:00.196Z,89.22
2022-09-20T23:54:29.883Z,89.11
2022-09-20T23:57:02.265Z,89.17
2022-09-20T23:59:32.688Z,89.57
